createdAt,value
2023-04-11T04:27:44.849Z,3.50
2023-04-11T04:30:19.758Z,4.35
2023-04-11T04:33:04.479Z,2.70
2023-04-11T04:35:35.698Z,2.78
2023-04-11T04:38:09.299Z,4.80
2023-04-11T04:40:47.991Z,2.90
2023-04-11T04:43:24.016Z,3.55
2023-04-11T04:46:00.050Z,4.50
2023-04-11T04:48:35.807Z,3.35
2023-04-11T04:51:05.422Z,2.72
2023-04-11T04:53:39.103Z,3.13
2023-04-11T04:56:10.374Z,3.42
2023-04-11T04:58:47.860Z,3.20
2023-04-11T05:01:18.686Z,3.30
2023-04-11T05:03:51.387Z,3.22
2023-04-11T05:06:29.629Z,4.38
2023-04-11T05:08:59.772Z,2.60
2023-04-11T05:11:29.230Z,5.05
2023-04-11T05:13:59.394Z,4.47
2023-04-11T05:16:28.695Z,3.53
2023-04-11T05:18:58.907Z,3.63
2023-04-11T05:21:27.741Z,3.92
2023-04-11T05:23:56.781Z,3.08
2023-04-11T05:26:27.196Z,4.28
2023-04-11T05:28:56.070Z,3.17
2023-04-11T05:31:30.330Z,4.50
2023-04-11T05:33:59.365Z,5.80
2023-04-11T05:36:29.859Z,4.38
2023-04-11T05:38:58.597Z,4.68
2023-04-11T05:41:29.696Z,5.68
2023-04-11T05:43:58.338Z,3.83
2023-04-11T05:46:28.108Z,4.40
2023-04-11T05:48:58.628Z,3.47
2023-04-11T05:51:27.283Z,3.70
2023-04-11T05:53:56.083Z,5.85
2023-04-11T05:56:24.907Z,4.85
2023-04-11T05:58:53.385Z,3.78
2023-04-11T06:01:22.607Z,4.32
2023-04-11T06:03:51.205Z,5.70
2023-04-11T06:06:21.512Z,4.15
2023-04-11T06:08:50.216Z,3.40
2023-04-11T06:11:18.626Z,9.27
2023-04-11T06:13:47.313Z,3.95
2023-04-11T06:16:16.135Z,3.05
2023-04-11T06:18:44.765Z,5.93
2023-04-11T06:21:13.184Z,3.50
2023-04-11T06:23:43.386Z,3.13
2023-04-11T06:26:12.009Z,5.22
2023-04-11T06:28:40.538Z,4.13
2023-04-11T06:31:10.194Z,5.68
2023-04-11T06:33:39.276Z,6.38
2023-04-11T06:36:08.458Z,11.13
2023-04-11T06:38:38.515Z,8.05
2023-04-11T06:41:08.860Z,10.90
2023-04-11T06:43:37.777Z,7.25
2023-04-11T06:46:08.648Z,9.88
2023-04-11T06:48:37.348Z,8.38
2023-04-11T06:51:06.269Z,8.82
2023-04-11T06:53:35.055Z,4.88
2023-04-11T06:56:03.648Z,7.03
2023-04-11T06:58:34.046Z,7.53
2023-04-11T07:01:02.735Z,5.75
2023-04-11T07:03:31.444Z,6.97
2023-04-11T07:06:00.184Z,5.13
2023-04-11T07:08:28.800Z,3.53
2023-04-11T07:10:57.389Z,4.70
2023-04-11T07:13:26.094Z,3.55
2023-04-11T07:15:56.586Z,7.38
2023-04-11T07:18:26.450Z,4.25
2023-04-11T07:20:55.040Z,6.10
2023-04-11T07:23:23.856Z,3.80
2023-04-11T07:25:54.905Z,3.95
2023-04-11T07:28:24.141Z,5.38
2023-04-11T07:30:55.160Z,4.05
2023-04-11T07:33:23.853Z,6.57
2023-04-11T07:35:52.519Z,6.15
2023-04-11T07:38:27.898Z,5.53
2023-04-11T07:40:57.316Z,7.22
2023-04-11T07:43:26.691Z,8.05
2023-04-11T07:45:57.714Z,6.00
2023-04-11T07:48:27.975Z,6.13
2023-04-11T07:50:57.104Z,6.72
2023-04-11T07:53:25.653Z,8.13
2023-04-11T07:55:54.344Z,8.82
2023-04-11T07:58:22.777Z,8.38
2023-04-11T08:00:51.546Z,9.75
2023-04-11T08:03:22.375Z,7.03
2023-04-11T08:05:52.686Z,6.65
2023-04-11T08:08:21.505Z,9.77
2023-04-11T08:10:52.030Z,8.05
2023-04-11T08:13:21.147Z,10.27
2023-04-11T08:15:49.544Z,8.85
2023-04-11T08:18:21.847Z,10.57
2023-04-11T08:20:52.090Z,10.27
2023-04-11T08:23:22.064Z,10.95
2023-04-11T08:25:50.718Z,9.18
2023-04-11T08:28:18.827Z,10.57
2023-04-11T08:30:47.013Z,11.02
2023-04-11T08:33:16.017Z,11.40
2023-04-11T08:35:44.041Z,8.40
2023-04-11T08:38:13.666Z,8.00
2023-04-11T08:40:41.592Z,8.77
2023-04-11T08:43:12.538Z,8.50
2023-04-11T08:45:41.305Z,7.22
2023-04-11T08:48:12.593Z,7.75
2023-04-11T08:50:42.469Z,10.65
2023-04-11T08:53:11.045Z,7.40
2023-04-11T08:55:47.232Z,8.55
2023-04-11T08:58:15.715Z,6.85
2023-04-11T09:00:44.104Z,6.32
2023-04-11T09:03:13.372Z,7.18
2023-04-11T09:05:43.641Z,9.13
2023-04-11T09:08:12.532Z,7.40
2023-04-11T09:10:41.807Z,6.80
2023-04-11T09:13:25.654Z,8.13
2023-04-11T09:16:05.614Z,6.53
2023-04-11T09:18:34.434Z,8.38
2023-04-11T09:21:04.196Z,8.10
2023-04-11T09:23:32.415Z,8.45
2023-04-11T09:26:00.495Z,8.00
2023-04-11T09:28:41.072Z,13.05
2023-04-11T09:31:10.558Z,7.28
2023-04-11T09:33:38.848Z,8.77
2023-04-11T09:36:20.042Z,6.43
2023-04-11T09:38:48.594Z,8.27
2023-04-11T09:41:29.271Z,9.32
2023-04-11T09:43:59.353Z,7.07
2023-04-11T09:46:27.646Z,4.40
2023-04-11T09:48:56.891Z,4.97
2023-04-11T09:51:35.046Z,6.30
2023-04-11T09:54:05.732Z,4.05
2023-04-11T09:56:34.933Z,3.35
2023-04-11T09:59:05.592Z,9.63
2023-04-11T10:01:33.928Z,5.57
2023-04-11T10:04:02.267Z,6.45
2023-04-11T10:06:35.225Z,9.50
2023-04-11T10:09:11.587Z,5.40
2023-04-11T10:11:42.886Z,5.18
2023-04-11T10:14:47.721Z,2.03
2023-04-11T10:17:21.192Z,3.22
2023-04-11T10:19:54.487Z,2.22
2023-04-11T10:23:00.181Z,3.20
2023-04-11T10:25:29.135Z,2.42
2023-04-11T10:28:01.727Z,2.58
2023-04-11T10:31:06.131Z,2.53
2023-04-11T10:33:36.492Z,3.67
2023-04-11T10:36:06.748Z,3.00
2023-04-11T10:38:48.631Z,4.28
2023-04-11T10:41:18.903Z,3.80
2023-04-11T10:43:47.604Z,4.85
2023-04-11T10:46:22.725Z,2.78
2023-04-11T10:48:59.402Z,3.05
2023-04-11T10:51:32.502Z,2.67
2023-04-11T10:54:01.630Z,2.50
2023-04-11T10:56:55.785Z,3.38
2023-04-11T11:00:02.638Z,4.00
2023-04-11T11:02:42.446Z,2.95
2023-04-11T11:05:19.513Z,2.20
2023-04-11T11:07:50.297Z,3.75
2023-04-11T11:10:40.259Z,2.85
2023-04-11T11:13:11.606Z,4.05
2023-04-11T11:15:47.043Z,3.05
2023-04-11T11:18:18.798Z,3.33
2023-04-11T11:20:47.108Z,2.47
2023-04-11T11:23:15.121Z,4.28
2023-04-11T11:25:53.545Z,2.67
2023-04-11T11:28:21.982Z,3.80
2023-04-11T11:30:55.625Z,4.32
2023-04-11T11:33:29.049Z,2.70
2023-04-11T11:35:59.360Z,1.20
2023-04-11T11:38:31.638Z,3.42
2023-04-11T11:41:00.557Z,2.53
2023-04-11T11:43:29.051Z,1.38
2023-04-11T11:46:11.511Z,2.15
2023-04-11T11:48:42.526Z,3.75
2023-04-11T11:51:10.623Z,2.00
2023-04-11T11:53:38.885Z,4.82
2023-04-11T11:56:14.606Z,2.22
2023-04-11T11:58:46.246Z,3.27
2023-04-11T12:01:16.541Z,3.75
2023-04-11T12:03:51.756Z,2.17
2023-04-11T12:06:20.467Z,2.75
2023-04-11T12:08:54.244Z,4.35
2023-04-11T12:11:22.973Z,3.60
2023-04-11T12:13:53.713Z,1.60
2023-04-11T12:16:24.102Z,4.53
2023-04-11T12:18:53.824Z,3.22
2023-04-11T12:21:21.846Z,2.25
2023-04-11T12:23:49.818Z,2.10
2023-04-11T12:26:20.242Z,5.57
2023-04-11T12:28:48.863Z,3.17
2023-04-11T12:31:17.600Z,2.90
2023-04-11T12:33:45.705Z,4.47
2023-04-11T12:36:15.833Z,2.97
2023-04-11T12:38:44.186Z,4.13
2023-04-11T12:41:31.017Z,3.30
2023-04-11T12:44:02.578Z,2.13
2023-04-11T12:46:31.014Z,3.22
2023-04-11T12:48:59.424Z,3.05
2023-04-11T12:51:28.926Z,2.15
2023-04-11T12:53:57.156Z,2.42
2023-04-11T12:56:25.384Z,2.83
2023-04-11T12:58:54.260Z,2.45
2023-04-11T13:01:24.224Z,3.85
2023-04-11T13:03:52.519Z,8.27
2023-04-11T13:06:20.718Z,3.58
2023-04-11T13:08:50.983Z,2.88
2023-04-11T13:11:19.483Z,3.50
2023-04-11T13:13:47.595Z,2.72
2023-04-11T13:16:16.269Z,3.08
2023-04-11T13:18:44.318Z,2.15
2023-04-11T13:21:12.445Z,2.20
2023-04-11T13:23:40.586Z,4.40
2023-04-11T13:26:10.288Z,1.98
2023-04-11T13:28:41.174Z,4.47
2023-04-11T13:31:12.083Z,3.47
2023-04-11T13:33:45.063Z,2.53
2023-04-11T13:36:13.230Z,1.33
2023-04-11T13:38:41.423Z,3.33
2023-04-11T13:41:12.215Z,3.08
2023-04-11T13:43:42.918Z,10.45
2023-04-11T13:46:11.776Z,6.70
2023-04-11T13:48:39.956Z,2.58
2023-04-11T13:51:08.519Z,2.67
2023-04-11T13:53:36.612Z,4.35
2023-04-11T13:56:05.048Z,2.10
2023-04-11T13:58:35.438Z,2.95
2023-04-11T14:01:03.655Z,4.63
2023-04-11T14:03:33.922Z,2.40
2023-04-11T14:06:03.666Z,2.95
2023-04-11T14:08:32.052Z,2.17
2023-04-11T14:11:00.218Z,3.67
2023-04-11T14:13:28.276Z,2.22
2023-04-11T14:16:08.148Z,2.03
2023-04-11T14:18:37.238Z,1.15
2023-04-11T14:21:06.058Z,2.10
2023-04-11T14:23:34.462Z,3.05
2023-04-11T14:26:02.554Z,3.45
2023-04-11T14:28:30.844Z,2.67
2023-04-11T14:31:00.471Z,3.97
2023-04-11T14:33:28.699Z,4.10
2023-04-11T14:35:56.785Z,2.28
2023-04-11T14:38:24.983Z,2.60
2023-04-11T14:40:53.022Z,3.00
2023-04-11T14:43:21.254Z,5.55
2023-04-11T14:45:49.390Z,5.15
2023-04-11T14:48:19.113Z,2.22
2023-04-11T14:50:47.270Z,2.58
2023-04-11T14:53:15.659Z,3.33
2023-04-11T14:55:44.673Z,1.98
2023-04-11T14:58:12.940Z,4.90
2023-04-11T15:00:41.311Z,1.92
2023-04-11T15:03:10.120Z,3.75
2023-04-11T15:05:39.730Z,3.75
2023-04-11T15:08:08.499Z,4.43
2023-04-11T15:10:36.790Z,4.90
2023-04-11T15:13:06.090Z,3.92
2023-04-11T15:15:34.311Z,2.55
2023-04-11T15:18:24.989Z,3.88
2023-04-11T15:20:55.686Z,2.90
2023-04-11T15:23:24.281Z,6.05
2023-04-11T15:25:59.519Z,5.53
2023-04-11T15:28:31.782Z,3.88
2023-04-11T15:31:00.130Z,2.38
2023-04-11T15:33:28.503Z,4.10
2023-04-11T15:36:00.308Z,4.05
2023-04-11T15:38:29.461Z,4.40
2023-04-11T15:40:59.480Z,6.78
2023-04-11T15:43:27.802Z,4.15
2023-04-11T15:45:56.099Z,5.38
2023-04-11T15:48:24.399Z,3.78
2023-04-11T15:50:53.234Z,4.10
2023-04-11T15:53:22.950Z,4.50
2023-04-11T15:55:51.600Z,3.58
2023-04-11T15:58:19.654Z,3.45
2023-04-11T16:00:47.601Z,5.53
2023-04-11T16:03:16.897Z,3.58
2023-04-11T16:05:46.091Z,3.15
2023-04-11T16:08:14.250Z,3.05
2023-04-11T16:10:43.726Z,2.17
2023-04-11T16:13:11.890Z,3.70
2023-04-11T16:15:39.824Z,4.28
2023-04-11T16:18:08.064Z,7.15
2023-04-11T16:20:36.400Z,4.45
2023-04-11T16:23:04.515Z,3.80
2023-04-11T16:25:32.657Z,4.03
2023-04-11T16:28:02.427Z,3.67
2023-04-11T16:30:30.795Z,4.47
2023-04-11T16:32:59.074Z,5.30
2023-04-11T16:35:27.169Z,4.57
2023-04-11T16:37:55.378Z,9.23
2023-04-11T16:40:23.482Z,8.05
2023-04-11T16:42:52.040Z,12.32
2023-04-11T16:45:21.764Z,5.03
2023-04-11T16:47:50.170Z,3.40
2023-04-11T16:50:18.638Z,3.30
2023-04-11T16:52:46.699Z,3.25
2023-04-11T16:55:15.307Z,2.45
2023-04-11T16:57:43.581Z,2.97
2023-04-11T17:00:18.937Z,4.82
2023-04-11T17:02:48.829Z,3.38
2023-04-11T17:05:19.421Z,5.38
2023-04-11T17:07:47.702Z,2.97
2023-04-11T17:10:15.924Z,3.00
2023-04-11T17:12:44.222Z,3.83
2023-04-11T17:15:13.323Z,4.32
2023-04-11T17:17:41.586Z,2.58
2023-04-11T17:20:12.549Z,3.00
2023-04-11T17:22:43.504Z,3.95
2023-04-11T17:25:12.205Z,4.88
2023-04-11T17:27:41.341Z,4.35
2023-04-11T17:30:10.363Z,3.05
2023-04-11T17:32:38.538Z,2.72
2023-04-11T17:35:13.580Z,5.82
2023-04-11T17:37:41.698Z,3.10
2023-04-11T17:40:14.586Z,4.05
2023-04-11T17:42:42.987Z,2.55
2023-04-11T17:45:18.167Z,3.08
2023-04-11T17:47:47.774Z,4.55
2023-04-11T17:50:18.297Z,3.40
2023-04-11T17:52:50.207Z,3.55
2023-04-11T17:55:19.656Z,2.95
2023-04-11T17:57:49.442Z,3.70
2023-04-11T18:00:21.779Z,3.03
2023-04-11T18:02:51.652Z,5.30
2023-04-11T18:05:25.002Z,3.90
2023-04-11T18:07:56.752Z,5.05
2023-04-11T18:10:26.718Z,6.90
2023-04-11T18:12:56.755Z,4.25
2023-04-11T18:15:26.438Z,4.43
2023-04-11T18:17:54.581Z,3.78
2023-04-11T18:20:24.498Z,6.85
2023-04-11T18:22:56.509Z,3.72
2023-04-11T18:25:25.080Z,9.82
2023-04-11T18:27:53.267Z,19.60
2023-04-11T18:30:21.708Z,9.80
2023-04-11T18:32:52.101Z,8.18
2023-04-11T18:35:21.690Z,7.30
2023-04-11T18:37:51.577Z,8.63
2023-04-11T18:40:19.907Z,5.95
2023-04-11T18:42:51.113Z,6.72
2023-04-11T18:45:23.818Z,6.55
2023-04-11T18:47:52.638Z,7.22
2023-04-11T18:50:23.160Z,7.22
2023-04-11T18:52:55.919Z,6.93
2023-04-11T18:55:27.739Z,7.30
2023-04-11T18:57:59.537Z,6.57
2023-04-11T19:00:30.434Z,8.55
2023-04-11T19:03:00.012Z,5.80
2023-04-11T19:05:29.411Z,7.47
2023-04-11T19:08:00.958Z,6.80
2023-04-11T19:10:29.177Z,4.32
2023-04-11T19:12:57.816Z,5.75
2023-04-11T19:15:26.190Z,6.30
2023-04-11T19:17:57.835Z,5.72
2023-04-11T19:20:27.139Z,6.85
2023-04-11T19:22:55.867Z,6.47
2023-04-11T19:25:27.905Z,7.75
2023-04-11T19:27:56.325Z,5.22
2023-04-11T19:30:24.720Z,5.05
2023-04-11T19:32:53.038Z,4.57
2023-04-11T19:35:24.512Z,6.70
2023-04-11T19:37:53.368Z,7.65
2023-04-11T19:40:23.723Z,5.60
2023-04-11T19:42:54.238Z,5.85
2023-04-11T19:45:22.659Z,5.63
2023-04-11T19:47:51.231Z,6.40
2023-04-11T19:50:23.234Z,6.57
2023-04-11T19:52:58.688Z,8.00
2023-04-11T19:55:27.658Z,9.02
2023-04-11T19:57:57.687Z,6.03
2023-04-11T20:00:27.256Z,7.82
2023-04-11T20:02:58.017Z,7.97
2023-04-11T20:05:28.211Z,5.05
2023-04-11T20:07:56.353Z,7.65
2023-04-11T20:10:26.057Z,10.27
2023-04-11T20:12:54.200Z,12.48
2023-04-11T20:15:24.128Z,7.70
2023-04-11T20:17:52.774Z,8.23
2023-04-11T20:20:26.222Z,11.48
2023-04-11T20:22:55.131Z,8.45
2023-04-11T20:25:24.439Z,7.32
2023-04-11T20:27:56.435Z,5.38
2023-04-11T20:30:27.052Z,4.70
2023-04-11T20:32:55.360Z,5.03
2023-04-11T20:35:23.894Z,6.63
2023-04-11T20:37:54.333Z,7.78
2023-04-11T20:40:22.871Z,5.53
2023-04-11T20:42:51.090Z,6.40
2023-04-11T20:45:22.951Z,8.38
2023-04-11T20:47:53.914Z,7.95
2023-04-11T20:50:22.300Z,5.55
2023-04-11T20:52:53.406Z,5.65
2023-04-11T20:55:21.569Z,5.28
2023-04-11T20:57:50.382Z,6.05
2023-04-11T21:00:20.267Z,4.88
2023-04-11T21:02:50.708Z,4.30
2023-04-11T21:05:25.279Z,5.18
2023-04-11T21:07:58.576Z,8.40
2023-04-11T21:10:26.929Z,5.15
2023-04-11T21:12:55.277Z,5.53
2023-04-11T21:15:24.034Z,5.82
2023-04-11T21:17:52.590Z,5.38
2023-04-11T21:20:22.960Z,7.80
2023-04-11T21:22:53.327Z,5.35
2023-04-11T21:25:22.591Z,6.68
2023-04-11T21:27:51.119Z,5.32
2023-04-11T21:30:19.775Z,3.90
2023-04-11T21:32:50.147Z,4.38
2023-04-11T21:35:18.385Z,5.20
2023-04-11T21:37:49.181Z,7.93
2023-04-11T21:40:17.755Z,5.35
2023-04-11T21:42:46.200Z,5.15
2023-04-11T21:45:16.979Z,5.65
2023-04-11T21:47:45.268Z,4.70
2023-04-11T21:50:13.512Z,5.38
2023-04-11T21:52:41.954Z,4.15
2023-04-11T21:55:12.317Z,7.22
2023-04-11T21:57:40.934Z,4.88
2023-04-11T22:00:13.121Z,4.35
2023-04-11T22:02:42.812Z,4.22
2023-04-11T22:05:12.843Z,4.78
2023-04-11T22:07:47.602Z,4.32
2023-04-11T22:10:23.253Z,5.72
2023-04-11T22:12:54.795Z,4.07
2023-04-11T22:15:24.617Z,5.13
2023-04-11T22:17:56.784Z,4.30
2023-04-11T22:20:25.238Z,4.50
2023-04-11T22:22:53.400Z,5.05
2023-04-11T22:25:25.285Z,5.55
2023-04-11T22:27:54.917Z,4.78
2023-04-11T22:30:24.693Z,7.18
2023-04-11T22:32:54.472Z,5.18
2023-04-11T22:35:25.168Z,3.80
2023-04-11T22:37:55.689Z,5.88
2023-04-11T22:40:25.740Z,4.63
2023-04-11T22:42:54.417Z,3.22
2023-04-11T22:45:23.595Z,4.65
2023-04-11T22:47:54.663Z,6.38
2023-04-11T22:50:24.299Z,4.10
2023-04-11T22:52:52.447Z,4.65
2023-04-11T22:55:21.402Z,4.45
2023-04-11T22:57:51.126Z,6.18
2023-04-11T23:00:19.697Z,4.93
2023-04-11T23:02:48.487Z,5.93
2023-04-11T23:26:25.037Z,4.95
2023-04-11T23:28:53.962Z,6.43
2023-04-11T23:31:22.142Z,3.78
2023-04-11T23:33:50.201Z,5.57
2023-04-11T23:36:18.224Z,5.53
2023-04-11T23:38:46.861Z,3.97
2023-04-11T23:41:15.213Z,4.22
2023-04-11T23:43:44.741Z,4.63
2023-04-11T23:46:13.434Z,4.13
2023-04-11T23:48:41.712Z,4.80
2023-04-11T23:51:09.597Z,4.45
2023-04-11T23:53:37.725Z,3.58
2023-04-11T23:56:06.495Z,3.22
2023-04-11T23:58:35.166Z,5.10
